Time;durP1;ratioP1;P1;durP2;ratioP2;P2;SDS_P1;SDS_P2;PMS_P1;PMS_P2;Temp;Humidity;BMP_temperature;BMP_pressure;BME280_temperature;BME280_humidity;BME280_pressure;Samples;Min_cycle;Max_cycle;Signal;HPM_P1;HPM_P2
2023/10/31 00:00:11;;;;;;;4.43;1.40;;;15.10;59.60;;;;;;349762;28;1419;-58
2023/10/31 00:00:22;;;;;;;5.32;1.48;;;15.10;59.60;;;;;;349711;28;896;-58
2023/10/31 00:00:34;;;;;;;4.38;1.38;;;15.20;59.70;;;;;;349763;28;1095;-58
2023/10/31 00:00:45;;;;;;;4.32;1.33;;;15.10;59.70;;;;;;349652;28;947;-58
2023/10/31 00:00:55;;;;;;;4.90;1.43;;;15.10;59.70;;;;;;349560;28;904;-58
2023/10/31 00:01:06;;;;;;;5.93;1.50;;;15.10;59.80;;;;;;349787;28;1246;-59
2023/10/31 00:01:17;;;;;;;5.05;1.67;;;15.10;59.90;;;;;;349776;28;984;-57
2023/10/31 00:01:28;;;;;;;3.90;1.58;;;15.10;59.90;;;;;;349828;28;1107;-58
2023/10/31 00:01:38;;;;;;;3.90;1.70;;;15.10;60.00;;;;;;349880;28;975;-58
2023/10/31 00:01:49;;;;;;;3.63;1.67;;;15.10;60.10;;;;;;349856;28;1019;-58
2023/10/31 00:02:00;;;;;;;4.75;1.98;;;15.10;60.10;;;;;;349809;28;991;-58
2023/10/31 00:02:11;;;;;;;4.35;1.98;;;15.10;60.10;;;;;;349738;28;1159;-58
2023/10/31 00:02:22;;;;;;;3.90;2.00;;;15.10;60.10;;;;;;349847;28;944;-58
2023/10/31 00:02:33;;;;;;;4.00;1.85;;;15.10;60.20;;;;;;349757;28;1644;-58
2023/10/31 00:02:43;;;;;;;4.65;1.80;;;15.10;60.20;;;;;;349813;28;1141;-57
2023/10/31 00:02:54;;;;;;;5.78;1.98;;;15.10;60.10;;;;;;349840;28;876;-57
2023/10/31 00:03:05;;;;;;;5.27;2.10;;;15.10;60.00;;;;;;349707;28;1008;-57
2023/10/31 00:03:15;;;;;;;4.38;1.98;;;15.10;60.00;;;;;;349832;28;1030;-58
2023/10/31 00:03:26;;;;;;;3.45;1.55;;;15.10;60.00;;;;;;349778;28;1654;-57
2023/10/31 00:03:37;;;;;;;3.83;1.50;;;15.10;59.90;;;;;;349845;28;907;-58
2023/10/31 00:03:48;;;;;;;4.37;1.50;;;15.10;59.90;;;;;;349731;28;1572;-58
2023/10/31 00:03:59;;;;;;;4.65;1.60;;;15.10;59.90;;;;;;349871;28;865;-58
2023/10/31 00:04:09;;;;;;;4.63;1.42;;;15.10;59.90;;;;;;349812;28;979;-58
2023/10/31 00:04:20;;;;;;;4.47;1.55;;;15.10;59.80;;;;;;349822;28;1023;-58
2023/10/31 00:04:31;;;;;;;4.25;1.60;;;15.10;59.80;;;;;;349773;28;1031;-57
2023/10/31 00:04:41;;;;;;;5.00;1.80;;;15.10;59.80;;;;;;349805;28;1047;-57
2023/10/31 00:04:52;;;;;;;4.55;1.55;;;15.10;59.80;;;;;;349695;28;1781;-58
2023/10/31 00:05:03;;;;;;;4.30;1.52;;;15.10;59.80;;;;;;349698;28;872;-58
2023/10/31 00:05:14;;;;;;;5.03;1.58;;;15.10;59.90;;;;;;349673;28;1062;-57
2023/10/31 00:05:25;;;;;;;5.45;1.77;;;15.10;59.90;;;;;;349731;28;857;-59
2023/10/31 00:05:35;;;;;;;5.85;1.77;;;15.10;60.00;;;;;;349720;28;1095;-58
2023/10/31 00:05:46;;;;;;;5.40;2.00;;;15.10;60.00;;;;;;349662;28;1269;-57
2023/10/31 00:05:57;;;;;;;5.28;2.10;;;15.10;60.10;;;;;;349608;28;984;-58
2023/10/31 00:06:07;;;;;;;5.50;2.20;;;15.10;60.10;;;;;;349693;28;834;-57
2023/10/31 00:06:18;;;;;;;4.68;2.05;;;15.10;60.10;;;;;;349627;28;1416;-57
2023/10/31 00:06:29;;;;;;;4.63;2.00;;;15.10;60.10;;;;;;348263;28;1011;-59
2023/10/31 00:06:40;;;;;;;4.18;1.80;;;15.10;60.10;;;;;;348258;28;1103;-58
2023/10/31 00:06:50;;;;;;;4.53;1.85;;;15.00;60.10;;;;;;349330;28;845;-58
2023/10/31 00:07:01;;;;;;;5.28;1.90;;;15.00;60.10;;;;;;349707;28;1031;-58
2023/10/31 00:07:12;;;;;;;5.30;2.00;;;15.00;60.10;;;;;;349675;28;1464;-58
2023/10/31 00:07:23;;;;;;;5.30;2.08;;;15.00;60.10;;;;;;349635;28;1819;-58
2023/10/31 00:07:33;;;;;;;4.60;2.10;;;15.00;60.10;;;;;;349720;28;841;-57
2023/10/31 00:07:44;;;;;;;4.78;2.10;;;15.00;60.10;;;;;;349692;28;864;-57
2023/10/31 00:07:55;;;;;;;4.13;1.95;;;15.00;60.20;;;;;;349691;28;1016;-58
2023/10/31 00:08:05;;;;;;;4.03;1.87;;;15.00;60.20;;;;;;349716;28;1025;-57
2023/10/31 00:08:16;;;;;;;3.78;1.80;;;15.00;60.20;;;;;;349652;28;1008;-57
2023/10/31 00:08:27;;;;;;;4.03;1.90;;;15.00;60.20;;;;;;349743;28;1142;-57
2023/10/31 00:08:38;;;;;;;3.87;1.80;;;15.00;60.20;;;;;;349811;28;932;-58
2023/10/31 00:08:48;;;;;;;4.87;1.73;;;15.00;60.20;;;;;;349826;28;883;-57
2023/10/31 00:08:59;;;;;;;5.97;1.80;;;15.00;60.20;;;;;;349848;28;884;-60
2023/10/31 00:09:13;;;;;;;5.78;1.90;;;15.00;60.30;;;;;;349732;28;1023;-58
2023/10/31 00:09:24;;;;;;;5.13;2.10;;;15.00;60.30;;;;;;349798;28;877;-59
2023/10/31 00:09:34;;;;;;;4.53;2.03;;;15.00;60.40;;;;;;349736;28;1491;-59
2023/10/31 00:09:45;;;;;;;4.80;1.97;;;15.00;60.50;;;;;;349850;28;923;-57
2023/10/31 00:09:56;;;;;;;4.80;1.92;;;15.00;60.60;;;;;;349678;28;1119;-58
2023/10/31 00:10:07;;;;;;;5.15;1.95;;;15.00;60.60;;;;;;349772;28;1493;-57
2023/10/31 00:10:18;;;;;;;5.43;2.13;;;15.00;60.60;;;;;;349770;28;1556;-57
2023/10/31 00:10:29;;;;;;;4.85;2.10;;;15.00;60.60;;;;;;349849;28;825;-57
2023/10/31 00:10:44;;;;;;;4.15;2.00;;;15.00;60.60;;;;;;349736;28;1031;-58
2023/10/31 00:10:55;;;;;;;4.80;2.00;;;15.00;60.70;;;;;;349732;28;1119;-58
2023/10/31 00:11:05;;;;;;;5.43;2.05;;;14.90;60.70;;;;;;349786;28;1115;-58
2023/10/31 00:11:16;;;;;;;5.40;2.15;;;15.00;60.70;;;;;;349805;28;1094;-58
2023/10/31 00:11:27;;;;;;;5.27;2.03;;;15.00;60.70;;;;;;349681;28;1162;-58
2023/10/31 00:11:38;;;;;;;4.60;2.07;;;15.00;60.70;;;;;;349760;28;1254;-58
2023/10/31 00:11:48;;;;;;;4.78;1.90;;;15.00;60.70;;;;;;349789;28;1054;-58
2023/10/31 00:11:59;;;;;;;4.25;1.95;;;15.00;60.70;;;;;;349793;28;1917;-58
2023/10/31 00:12:10;;;;;;;4.15;2.15;;;15.00;60.70;;;;;;349817;28;1781;-57
2023/10/31 00:12:20;;;;;;;3.70;2.20;;;15.00;60.80;;;;;;349728;28;1848;-57
2023/10/31 00:12:32;;;;;;;4.10;2.20;;;15.00;60.70;;;;;;349760;28;1600;-57
2023/10/31 00:12:42;;;;;;;5.05;2.08;;;15.00;60.70;;;;;;349803;28;1114;-57
2023/10/31 00:12:53;;;;;;;4.70;2.20;;;15.00;60.70;;;;;;349767;28;1400;-58
2023/10/31 00:13:04;;;;;;;5.43;2.28;;;15.00;60.80;;;;;;349790;28;1095;-58
2023/10/31 00:13:15;;;;;;;4.57;2.17;;;15.00;60.90;;;;;;349721;28;991;-58
2023/10/31 00:13:26;;;;;;;4.65;2.03;;;14.90;60.90;;;;;;349749;28;1484;-59
2023/10/31 00:13:37;;;;;;;3.67;1.80;;;14.90;61.00;;;;;;349807;28;1067;-58
2023/10/31 00:13:48;;;;;;;3.67;1.83;;;15.00;61.00;;;;;;349824;28;1090;-57
2023/10/31 00:13:59;;;;;;;4.53;2.10;;;15.00;61.00;;;;;;349754;28;881;-57
2023/10/31 00:14:09;;;;;;;4.60;2.10;;;15.00;61.10;;;;;;349810;28;1118;-57
2023/10/31 00:14:20;;;;;;;4.50;2.00;;;15.00;61.10;;;;;;349820;28;881;-57
2023/10/31 00:14:31;;;;;;;5.00;1.80;;;15.00;61.10;;;;;;349793;28;896;-58
2023/10/31 00:14:42;;;;;;;5.05;1.80;;;15.00;61.10;;;;;;349745;28;1112;-58
2023/10/31 00:14:53;;;;;;;4.80;1.75;;;14.90;61.10;;;;;;349790;28;1557;-59
2023/10/31 00:15:04;;;;;;;3.67;1.80;;;15.00;61.10;;;;;;349799;28;1003;-60
2023/10/31 00:15:14;;;;;;;4.78;2.00;;;15.00;61.10;;;;;;349849;28;943;-57
2023/10/31 00:15:25;;;;;;;6.15;2.08;;;15.00;61.00;;;;;;349720;28;864;-58
2023/10/31 00:15:36;;;;;;;5.55;1.77;;;15.00;60.90;;;;;;349825;28;956;-58
2023/10/31 00:15:47;;;;;;;3.83;1.60;;;15.00;61.00;;;;;;349781;28;1130;-57
2023/10/31 00:15:57;;;;;;;3.53;1.58;;;15.00;61.10;;;;;;349800;28;1781;-57
2023/10/31 00:16:08;;;;;;;3.67;1.70;;;15.00;61.00;;;;;;349709;28;1003;-57
2023/10/31 00:16:19;;;;;;;3.95;1.60;;;15.00;60.90;;;;;;349816;28;1849;-57
2023/10/31 00:16:30;;;;;;;3.53;1.60;;;15.00;60.90;;;;;;349831;28;889;-57
2023/10/31 00:16:40;;;;;;;5.00;1.67;;;15.00;60.90;;;;;;349825;28;991;-57
2023/10/31 00:16:51;;;;;;;4.97;1.85;;;15.00;60.90;;;;;;349670;28;971;-58
2023/10/31 00:17:02;;;;;;;5.47;1.85;;;15.00;60.90;;;;;;349858;28;940;-59
2023/10/31 00:17:12;;;;;;;4.83;1.70;;;15.00;61.00;;;;;;349822;28;1037;-58
2023/10/31 00:17:23;;;;;;;5.03;1.70;;;15.00;61.00;;;;;;349843;28;1070;-58
2023/10/31 00:17:34;;;;;;;5.00;1.80;;;15.00;61.00;;;;;;349757;28;906;-58
2023/10/31 00:17:44;;;;;;;5.07;1.90;;;15.00;61.00;;;;;;349837;28;1093;-57
2023/10/31 00:17:55;;;;;;;4.80;1.83;;;15.00;61.00;;;;;;349814;28;978;-57
2023/10/31 00:18:06;;;;;;;5.80;2.03;;;15.00;60.90;;;;;;349775;28;1102;-58
2023/10/31 00:18:17;;;;;;;6.93;2.20;;;15.00;60.80;;;;;;349804;28;1094;-58
2023/10/31 00:18:27;;;;;;;7.13;2.08;;;15.00;60.70;;;;;;349727;28;1114;-58
2023/10/31 00:18:38;;;;;;;4.90;1.77;;;15.00;60.70;;;;;;349799;28;1245;-58
2023/10/31 00:18:49;;;;;;;4.53;1.70;;;15.00;60.70;;;;;;349798;28;1280;-58
2023/10/31 00:18:59;;;;;;;4.40;1.73;;;15.00;60.60;;;;;;349805;28;1083;-58
2023/10/31 00:19:10;;;;;;;4.18;1.75;;;15.00;60.60;;;;;;349799;28;1765;-58
2023/10/31 00:19:21;;;;;;;4.50;1.73;;;14.90;60.60;;;;;;349756;28;950;-57
2023/10/31 00:19:32;;;;;;;4.60;1.50;;;15.00;60.60;;;;;;349807;28;1030;-57
2023/10/31 00:19:44;;;;;;;4.93;1.50;;;14.90;60.60;;;;;;349701;28;1242;-57
2023/10/31 00:19:55;;;;;;;4.57;1.63;;;15.00;60.60;;;;;;349703;28;1119;-58
2023/10/31 00:20:06;;;;;;;4.28;1.73;;;15.00;60.60;;;;;;349818;28;908;-57
2023/10/31 00:20:17;;;;;;;4.03;1.80;;;15.00;60.70;;;;;;349696;28;1114;-57
2023/10/31 00:20:29;;;;;;;5.50;1.80;;;14.90;60.60;;;;;;349783;28;1334;-58
2023/10/31 00:20:39;;;;;;;6.10;1.90;;;15.00;60.50;;;;;;349847;28;1786;-58
2023/10/31 00:20:50;;;;;;;5.13;1.77;;;15.00;60.50;;;;;;349772;28;837;-57
2023/10/31 00:21:01;;;;;;;4.47;1.85;;;15.00;60.50;;;;;;349819;28;1082;-57
2023/10/31 00:21:12;;;;;;;5.07;1.90;;;15.00;60.60;;;;;;349695;28;940;-57
2023/10/31 00:21:22;;;;;;;4.73;1.90;;;15.00;60.60;;;;;;349856;28;971;-58
2023/10/31 00:21:33;;;;;;;5.05;1.85;;;14.90;60.60;;;;;;349745;28;1126;-58
2023/10/31 00:21:44;;;;;;;5.47;1.92;;;15.00;60.60;;;;;;349799;28;1085;-58
2023/10/31 00:21:54;;;;;;;5.70;2.10;;;14.90;60.60;;;;;;349771;28;1046;-58
2023/10/31 00:22:05;;;;;;;4.43;1.98;;;14.90;60.60;;;;;;349695;28;1015;-58
2023/10/31 00:22:16;;;;;;;3.75;1.95;;;15.00;60.60;;;;;;349833;28;905;-58
2023/10/31 00:22:27;;;;;;;3.90;1.98;;;14.90;60.60;;;;;;349816;28;893;-57
2023/10/31 00:22:37;;;;;;;4.55;2.25;;;14.90;60.60;;;;;;349760;28;1150;-57
2023/10/31 00:22:48;;;;;;;4.70;2.20;;;15.00;60.60;;;;;;349779;28;1086;-58
2023/10/31 00:22:59;;;;;;;4.30;2.17;;;15.00;60.50;;;;;;349719;28;986;-58
2023/10/31 00:23:09;;;;;;;4.22;2.08;;;14.90;60.50;;;;;;349780;28;1026;-57
2023/10/31 00:23:22;;;;;;;4.18;2.10;;;15.00;60.40;;;;;;349793;28;964;-56
2023/10/31 00:23:33;;;;;;;4.60;2.20;;;14.90;60.40;;;;;;349778;28;939;-57
2023/10/31 00:23:48;;;;;;;4.38;2.00;;;14.90;60.50;;;;;;349735;28;989;-57
2023/10/31 00:23:58;;;;;;;4.28;1.98;;;15.00;60.50;;;;;;349778;28;911;-57
2023/10/31 00:24:09;;;;;;;3.78;2.10;;;15.00;60.40;;;;;;349835;28;856;-57
2023/10/31 00:24:20;;;;;;;3.60;2.20;;;15.00;60.40;;;;;;349828;28;1019;-57
2023/10/31 00:24:32;;;;;;;3.90;2.20;;;14.90;60.40;;;;;;349701;28;1440;-57
2023/10/31 00:24:42;;;;;;;4.38;2.15;;;14.90;60.40;;;;;;349738;28;1110;-57
2023/10/31 00:24:53;;;;;;;4.60;2.03;;;15.00;60.50;;;;;;349774;28;995;-58
2023/10/31 00:25:04;;;;;;;4.90;2.10;;;15.00;60.60;;;;;;349835;28;1030;-57
2023/10/31 00:25:15;;;;;;;5.30;2.20;;;14.90;60.70;;;;;;349726;28;1007;-58
2023/10/31 00:25:25;;;;;;;5.23;2.30;;;14.90;60.70;;;;;;349808;28;1086;-58
2023/10/31 00:25:36;;;;;;;4.28;2.22;;;14.90;60.80;;;;;;349811;28;840;-58
2023/10/31 00:25:47;;;;;;;3.70;2.13;;;14.90;60.80;;;;;;349714;28;1476;-58
2023/10/31 00:25:58;;;;;;;4.20;2.25;;;14.90;60.80;;;;;;349700;28;991;-57
2023/10/31 00:26:09;;;;;;;5.22;2.40;;;14.90;60.70;;;;;;349790;28;1349;-58
2023/10/31 00:26:20;;;;;;;5.03;2.30;;;14.90;60.70;;;;;;349776;28;971;-57
2023/10/31 00:26:31;;;;;;;5.13;2.22;;;14.90;60.70;;;;;;349817;28;1007;-58
2023/10/31 00:26:41;;;;;;;4.82;2.20;;;14.90;60.60;;;;;;349763;28;918;-57
2023/10/31 00:26:52;;;;;;;4.53;2.10;;;14.90;60.60;;;;;;349805;28;995;-57
2023/10/31 00:27:03;;;;;;;4.13;1.90;;;14.90;60.50;;;;;;349811;28;1864;-57
2023/10/31 00:27:14;;;;;;;5.28;2.05;;;14.90;60.50;;;;;;349785;28;1146;-57
2023/10/31 00:27:25;;;;;;;5.30;2.17;;;14.90;60.40;;;;;;349725;28;1068;-57
2023/10/31 00:27:36;;;;;;;4.47;2.10;;;14.90;60.40;;;;;;349858;28;970;-57
2023/10/31 00:27:47;;;;;;;5.50;1.88;;;14.90;60.40;;;;;;349866;28;805;-57
2023/10/31 00:27:57;;;;;;;7.50;2.00;;;14.90;60.30;;;;;;349827;28;1038;-57
2023/10/31 00:28:08;;;;;;;7.07;2.17;;;14.90;60.40;;;;;;349741;28;1051;-57
2023/10/31 00:28:19;;;;;;;6.43;2.30;;;14.90;60.30;;;;;;349811;28;1034;-58
2023/10/31 00:28:30;;;;;;;5.03;2.30;;;14.90;60.30;;;;;;349767;28;1082;-57
2023/10/31 00:28:40;;;;;;;5.57;2.25;;;14.90;60.30;;;;;;349661;28;1518;-57
2023/10/31 00:28:51;;;;;;;5.00;2.20;;;14.90;60.30;;;;;;349808;28;1074;-57
2023/10/31 00:29:02;;;;;;;5.63;2.10;;;14.90;60.30;;;;;;349820;28;991;-58
2023/10/31 00:29:13;;;;;;;4.77;2.17;;;14.90;60.30;;;;;;349712;28;912;-56
2023/10/31 00:29:23;;;;;;;5.07;2.20;;;14.90;60.20;;;;;;349789;28;1070;-58
2023/10/31 00:29:34;;;;;;;5.32;2.30;;;14.90;60.30;;;;;;349825;28;980;-58
2023/10/31 00:29:45;;;;;;;5.68;2.20;;;14.90;60.30;;;;;;349684;28;1074;-59
2023/10/31 00:29:55;;;;;;;5.63;2.20;;;14.90;60.30;;;;;;349829;28;852;-58
2023/10/31 00:30:07;;;;;;;5.18;2.10;;;14.90;60.20;;;;;;349783;28;1074;-59
2023/10/31 00:30:17;;;;;;;5.35;1.92;;;14.90;60.30;;;;;;349679;28;1099;-58
2023/10/31 00:30:28;;;;;;;4.90;1.90;;;14.90;60.30;;;;;;349734;28;1023;-57
2023/10/31 00:30:39;;;;;;;5.10;1.95;;;14.90;60.30;;;;;;349803;28;1065;-58
2023/10/31 00:30:50;;;;;;;4.82;1.88;;;14.80;60.20;;;;;;349689;28;1150;-58
2023/10/31 00:31:00;;;;;;;5.07;1.70;;;14.90;60.20;;;;;;349776;28;1091;-58
2023/10/31 00:31:11;;;;;;;5.15;1.77;;;14.90;60.20;;;;;;349764;28;1445;-58
2023/10/31 00:31:22;;;;;;;5.38;1.80;;;14.90;60.10;;;;;;349667;28;1154;-57
2023/10/31 00:31:34;;;;;;;4.93;1.95;;;14.90;60.20;;;;;;349768;28;986;-57
2023/10/31 00:31:45;;;;;;;4.68;1.90;;;14.90;60.20;;;;;;349816;28;844;-58
2023/10/31 00:31:56;;;;;;;4.00;1.90;;;14.90;60.30;;;;;;349630;28;1994;-57
2023/10/31 00:32:07;;;;;;;3.70;1.73;;;14.90;60.30;;;;;;349800;28;876;-58
2023/10/31 00:32:17;;;;;;;4.15;1.67;;;14.90;60.30;;;;;;349821;28;884;-58
2023/10/31 00:32:28;;;;;;;3.90;1.67;;;14.90;60.30;;;;;;349745;28;1003;-57
2023/10/31 00:32:39;;;;;;;4.10;1.70;;;14.90;60.40;;;;;;349778;28;891;-57
2023/10/31 00:32:50;;;;;;;3.25;1.70;;;14.90;60.40;;;;;;349827;28;915;-57
2023/10/31 00:33:00;;;;;;;3.83;1.88;;;14.90;60.50;;;;;;349737;28;1467;-58
2023/10/31 00:33:11;;;;;;;4.22;2.00;;;14.90;60.50;;;;;;349692;28;1162;-59
2023/10/31 00:33:22;;;;;;;4.93;2.10;;;14.90;60.50;;;;;;349841;28;971;-58
2023/10/31 00:33:32;;;;;;;5.15;2.00;;;14.90;60.60;;;;;;349807;28;1039;-58
2023/10/31 00:33:43;;;;;;;5.03;2.00;;;14.90;60.60;;;;;;349801;28;825;-57
2023/10/31 00:33:55;;;;;;;4.57;1.77;;;14.90;60.60;;;;;;349653;28;1091;-58
2023/10/31 00:34:06;;;;;;;5.18;1.98;;;14.90;60.50;;;;;;349719;28;1216;-57
2023/10/31 00:34:16;;;;;;;5.87;1.93;;;15.00;60.30;;;;;;349739;28;1193;-57
2023/10/31 00:34:27;;;;;;;5.65;1.95;;;14.90;60.30;;;;;;349783;28;988;-56
2023/10/31 00:34:38;;;;;;;4.57;1.90;;;14.90;60.30;;;;;;349667;28;1023;-58
2023/10/31 00:34:49;;;;;;;4.78;1.90;;;14.90;60.30;;;;;;349748;28;1764;-57
2023/10/31 00:34:59;;;;;;;5.63;2.07;;;14.90;60.40;;;;;;349774;28;1054;-57
2023/10/31 00:35:12;;;;;;;6.80;2.10;;;14.90;60.40;;;;;;349754;28;979;-57
2023/10/31 00:35:23;;;;;;;7.03;2.08;;;14.90;60.50;;;;;;349499;28;1235;-58
2023/10/31 00:35:33;;;;;;;6.32;1.95;;;15.00;60.60;;;;;;349755;28;1196;-57
2023/10/31 00:35:44;;;;;;;5.90;1.80;;;14.90;60.60;;;;;;349782;28;1086;-58
2023/10/31 00:35:55;;;;;;;7.18;1.88;;;15.00;60.50;;;;;;349727;28;1194;-58
2023/10/31 00:36:06;;;;;;;6.10;1.70;;;14.90;60.50;;;;;;349709;28;1035;-58
2023/10/31 00:36:17;;;;;;;5.47;1.58;;;14.90;60.40;;;;;;349788;28;1018;-58
2023/10/31 00:36:28;;;;;;;4.50;1.58;;;15.00;60.40;;;;;;349832;28;821;-58
2023/10/31 00:36:38;;;;;;;5.93;1.70;;;15.00;60.40;;;;;;349792;28;852;-57
2023/10/31 00:36:49;;;;;;;5.55;1.80;;;15.00;60.30;;;;;;349674;28;991;-58
2023/10/31 00:37:00;;;;;;;4.20;1.60;;;15.00;60.30;;;;;;349693;28;1637;-57
2023/10/31 00:37:11;;;;;;;3.75;1.52;;;15.00;60.40;;;;;;349784;28;1015;-56
2023/10/31 00:37:22;;;;;;;4.30;1.50;;;15.00;60.30;;;;;;349742;28;1486;-57
2023/10/31 00:37:32;;;;;;;6.03;1.52;;;15.00;60.30;;;;;;349742;28;895;-57
2023/10/31 00:37:43;;;;;;;5.72;1.50;;;15.00;60.40;;;;;;349744;28;1086;-59
2023/10/31 00:37:54;;;;;;;5.47;1.50;;;15.00;60.30;;;;;;349744;28;1063;-57
2023/10/31 00:38:05;;;;;;;4.13;1.60;;;15.00;60.20;;;;;;349677;28;1177;-57
2023/10/31 00:38:15;;;;;;;4.20;1.65;;;15.00;60.20;;;;;;349821;28;884;-57
2023/10/31 00:38:26;;;;;;;4.57;1.67;;;15.00;60.10;;;;;;349819;28;971;-57
2023/10/31 00:38:37;;;;;;;5.65;1.50;;;15.00;60.10;;;;;;349686;28;1302;-57
2023/10/31 00:38:47;;;;;;;5.50;1.40;;;15.00;60.10;;;;;;349797;28;808;-61
2023/10/31 00:38:58;;;;;;;4.95;1.38;;;14.90;60.10;;;;;;349803;28;1106;-58
2023/10/31 00:39:09;;;;;;;4.18;1.40;;;15.00;60.20;;;;;;349746;28;930;-59
2023/10/31 00:39:20;;;;;;;4.88;1.48;;;15.00;60.30;;;;;;349789;28;900;-57
2023/10/31 00:39:30;;;;;;;5.22;1.60;;;14.90;60.30;;;;;;349785;28;1087;-58
2023/10/31 00:39:41;;;;;;;5.17;1.70;;;15.00;60.30;;;;;;349622;28;1453;-58
2023/10/31 00:39:52;;;;;;;5.03;1.50;;;14.90;60.20;;;;;;349803;28;852;-56
2023/10/31 00:40:03;;;;;;;5.00;1.65;;;14.90;60.20;;;;;;349808;28;1015;-58
2023/10/31 00:40:16;;;;;;;4.65;1.70;;;15.00;60.20;;;;;;349679;28;1083;-57
2023/10/31 00:40:27;;;;;;;3.85;1.80;;;14.90;60.20;;;;;;349744;28;1114;-57
2023/10/31 00:40:37;;;;;;;3.88;1.80;;;14.90;60.20;;;;;;349784;28;1087;-57
2023/10/31 00:40:48;;;;;;;4.80;1.90;;;14.90;60.20;;;;;;349650;28;1118;-58
2023/10/31 00:40:59;;;;;;;4.90;1.80;;;15.00;60.10;;;;;;349783;28;892;-59
2023/10/31 00:41:09;;;;;;;4.28;1.80;;;14.90;60.10;;;;;;349726;28;1400;-57
2023/10/31 00:41:20;;;;;;;3.30;1.50;;;15.00;60.10;;;;;;349703;28;1003;-57
2023/10/31 00:41:31;;;;;;;3.40;1.50;;;14.90;60.10;;;;;;349795;28;1844;-57
2023/10/31 00:41:45;;;;;;;3.47;1.40;;;14.90;60.10;;;;;;349759;28;1038;-57
2023/10/31 00:41:56;;;;;;;3.50;1.40;;;14.90;60.10;;;;;;349699;28;864;-57
2023/10/31 00:42:08;;;;;;;4.00;1.60;;;15.00;60.20;;;;;;349812;28;999;-57
2023/10/31 00:42:18;;;;;;;4.05;1.70;;;14.90;60.20;;;;;;349742;28;1111;-56
2023/10/31 00:42:29;;;;;;;3.92;1.70;;;14.90;60.30;;;;;;349706;28;958;-57
2023/10/31 00:42:41;;;;;;;3.80;1.60;;;14.90;60.40;;;;;;349817;28;1026;-57
2023/10/31 00:42:53;;;;;;;3.42;1.60;;;14.90;60.40;;;;;;349732;28;912;-57
2023/10/31 00:43:04;;;;;;;3.25;1.60;;;14.90;60.40;;;;;;349793;28;1897;-59
2023/10/31 00:43:15;;;;;;;3.50;1.70;;;14.90;60.40;;;;;;349831;28;874;-58
2023/10/31 00:43:25;;;;;;;3.23;1.60;;;14.90;60.40;;;;;;349713;28;904;-59
2023/10/31 00:43:36;;;;;;;3.30;1.60;;;14.90;60.50;;;;;;349760;28;2527;-57
2023/10/31 00:43:47;;;;;;;3.33;1.40;;;14.90;60.40;;;;;;349738;28;1066;-57
2023/10/31 00:43:58;;;;;;;3.20;1.33;;;14.90;60.30;;;;;;349740;28;1134;-58
2023/10/31 00:44:09;;;;;;;3.92;1.30;;;14.90;60.20;;;;;;349768;28;1047;-57
2023/10/31 00:44:20;;;;;;;4.25;1.40;;;14.90;60.10;;;;;;349693;28;1046;-57
2023/10/31 00:44:30;;;;;;;4.57;1.48;;;14.90;60.10;;;;;;349774;28;892;-56
2023/10/31 00:44:41;;;;;;;3.93;1.43;;;14.90;60.00;;;;;;349838;28;1030;-59
2023/10/31 00:44:52;;;;;;;3.80;1.55;;;14.90;60.10;;;;;;349749;28;849;-59
2023/10/31 00:45:03;;;;;;;4.10;1.60;;;14.90;60.10;;;;;;349770;28;1038;-58
2023/10/31 00:45:14;;;;;;;4.97;1.95;;;14.90;60.10;;;;;;349652;28;1131;-58
2023/10/31 00:45:24;;;;;;;4.88;1.95;;;14.90;60.10;;;;;;349801;28;1039;-56
2023/10/31 00:45:35;;;;;;;4.95;2.00;;;14.90;60.10;;;;;;349798;28;840;-58
2023/10/31 00:45:46;;;;;;;4.17;1.70;;;14.90;60.00;;;;;;349779;28;955;-57
2023/10/31 00:45:56;;;;;;;4.35;1.73;;;14.90;60.00;;;;;;349752;28;1808;-57
2023/10/31 00:46:07;;;;;;;4.75;1.90;;;14.90;60.10;;;;;;349679;28;2450;-57
2023/10/31 00:46:18;;;;;;;5.13;2.07;;;14.90;60.00;;;;;;349746;28;1107;-58
2023/10/31 00:46:28;;;;;;;5.93;2.15;;;14.90;60.00;;;;;;349827;28;844;-57
2023/10/31 00:46:39;;;;;;;5.95;2.10;;;14.90;60.00;;;;;;349760;28;892;-58
2023/10/31 00:46:50;;;;;;;5.40;1.80;;;14.90;60.10;;;;;;349759;28;1083;-58
2023/10/31 00:47:01;;;;;;;5.13;1.67;;;14.90;60.10;;;;;;349719;28;1003;-57
2023/10/31 00:47:12;;;;;;;5.18;1.70;;;14.90;60.10;;;;;;349725;28;1326;-57
2023/10/31 00:47:23;;;;;;;5.22;1.67;;;14.90;60.10;;;;;;349791;28;895;-57
2023/10/31 00:47:33;;;;;;;4.70;1.73;;;14.90;60.10;;;;;;349832;28;951;-56
2023/10/31 00:47:44;;;;;;;4.30;1.80;;;14.90;60.10;;;;;;349783;28;998;-58
2023/10/31 00:47:55;;;;;;;4.15;1.77;;;14.90;60.10;;;;;;349622;28;1091;-57
2023/10/31 00:48:05;;;;;;;4.40;1.60;;;14.90;60.10;;;;;;349725;28;1419;-57
2023/10/31 00:48:16;;;;;;;5.18;1.50;;;14.90;60.20;;;;;;349793;28;995;-58
2023/10/31 00:48:27;;;;;;;5.10;1.52;;;14.90;60.20;;;;;;349798;28;887;-57
2023/10/31 00:48:37;;;;;;;4.75;1.70;;;14.90;60.20;;;;;;349822;28;987;-57
2023/10/31 00:48:48;;;;;;;5.37;2.00;;;14.90;60.20;;;;;;349660;28;1046;-58
2023/10/31 00:48:59;;;;;;;6.57;2.03;;;14.80;60.20;;;;;;349764;28;1031;-58
2023/10/31 00:49:09;;;;;;;6.13;1.75;;;14.90;60.10;;;;;;349831;28;836;-58
2023/10/31 00:49:20;;;;;;;5.65;1.50;;;14.80;60.10;;;;;;349822;28;1015;-60
2023/10/31 00:49:31;;;;;;;5.07;1.47;;;14.90;60.10;;;;;;349769;28;1224;-57
2023/10/31 00:49:42;;;;;;;5.07;1.50;;;14.80;60.10;;;;;;349634;28;1181;-58
2023/10/31 00:49:53;;;;;;;5.15;1.50;;;14.90;60.10;;;;;;349746;28;1003;-59
2023/10/31 00:50:04;;;;;;;4.55;1.45;;;14.80;60.10;;;;;;349766;28;1061;-58
2023/10/31 00:50:15;;;;;;;4.70;1.50;;;14.80;60.10;;;;;;349699;28;1374;-58
2023/10/31 00:50:25;;;;;;;3.88;1.50;;;14.80;60.00;;;;;;349772;28;1054;-57
2023/10/31 00:50:36;;;;;;;3.47;1.33;;;14.80;60.10;;;;;;349713;28;1033;-57
2023/10/31 00:50:47;;;;;;;3.70;1.40;;;14.80;60.10;;;;;;349765;28;1011;-57
2023/10/31 00:50:57;;;;;;;3.88;1.38;;;14.90;60.10;;;;;;349712;28;975;-57
2023/10/31 00:51:08;;;;;;;3.15;1.30;;;14.80;60.20;;;;;;349714;28;1098;-57
2023/10/31 00:51:19;;;;;;;3.13;1.25;;;14.80;60.20;;;;;;349812;28;825;-58
2023/10/31 00:51:29;;;;;;;3.73;1.27;;;14.80;60.30;;;;;;349710;28;1035;-58
2023/10/31 00:51:40;;;;;;;4.45;1.55;;;14.80;60.40;;;;;;349837;28;845;-57
2023/10/31 00:51:51;;;;;;;4.75;1.77;;;14.80;60.40;;;;;;349741;28;1065;-57
2023/10/31 00:52:02;;;;;;;5.07;1.80;;;14.90;60.40;;;;;;349745;28;1979;-59
2023/10/31 00:52:13;;;;;;;4.15;1.63;;;14.80;60.30;;;;;;349702;28;1436;-58
2023/10/31 00:52:23;;;;;;;4.00;1.47;;;14.80;60.30;;;;;;349713;28;1022;-57
2023/10/31 00:52:34;;;;;;;4.30;1.52;;;14.80;60.20;;;;;;349763;28;1646;-57
2023/10/31 00:52:45;;;;;;;4.43;1.52;;;14.80;60.20;;;;;;349731;28;1282;-58
2023/10/31 00:52:55;;;;;;;4.15;1.60;;;14.80;60.30;;;;;;349843;28;876;-56
2023/10/31 00:53:07;;;;;;;3.80;1.50;;;14.80;60.30;;;;;;349747;28;1166;-57
2023/10/31 00:53:18;;;;;;;3.72;1.60;;;14.80;60.40;;;;;;349715;28;951;-58
2023/10/31 00:53:28;;;;;;;4.28;1.58;;;14.80;60.40;;;;;;349799;28;1015;-58
2023/10/31 00:53:39;;;;;;;4.17;1.63;;;14.80;60.50;;;;;;349797;28;947;-56
2023/10/31 00:53:50;;;;;;;4.23;1.60;;;14.80;60.50;;;;;;349659;28;1150;-58
2023/10/31 00:54:00;;;;;;;4.38;1.50;;;14.80;60.50;;;;;;349746;28;1161;-58
2023/10/31 00:54:11;;;;;;;4.93;1.50;;;14.80;60.40;;;;;;349743;28;1134;-58
2023/10/31 00:54:22;;;;;;;4.83;1.40;;;14.80;60.40;;;;;;349677;28;915;-58
2023/10/31 00:54:33;;;;;;;4.43;1.35;;;14.80;60.40;;;;;;349746;28;1133;-57
2023/10/31 00:54:44;;;;;;;4.70;1.40;;;14.80;60.50;;;;;;349658;28;1514;-58
2023/10/31 00:54:54;;;;;;;5.85;1.55;;;14.80;60.50;;;;;;349658;28;1050;-59
2023/10/31 00:55:05;;;;;;;5.25;1.50;;;14.80;60.50;;;;;;349747;28;1166;-58
2023/10/31 00:55:16;;;;;;;5.03;1.48;;;14.80;60.50;;;;;;349713;28;1561;-58
2023/10/31 00:55:27;;;;;;;4.82;1.42;;;14.80;60.40;;;;;;349700;28;903;-60
2023/10/31 00:55:37;;;;;;;4.40;1.40;;;14.80;60.40;;;;;;349758;28;1011;-58
2023/10/31 00:55:48;;;;;;;3.63;1.27;;;14.80;60.40;;;;;;349741;28;1155;-58
2023/10/31 00:55:59;;;;;;;3.30;1.30;;;14.80;60.40;;;;;;349700;28;966;-59
2023/10/31 00:56:10;;;;;;;3.03;1.23;;;14.80;60.40;;;;;;349776;28;1000;-58
2023/10/31 00:56:20;;;;;;;3.27;1.30;;;14.80;60.50;;;;;;349716;28;1235;-58
2023/10/31 00:56:31;;;;;;;2.88;1.35;;;14.70;60.50;;;;;;349704;28;985;-58
2023/10/31 00:56:42;;;;;;;3.05;1.35;;;14.80;60.50;;;;;;349720;28;1075;-58
2023/10/31 00:56:53;;;;;;;3.30;1.33;;;14.70;60.60;;;;;;349751;28;794;-58
2023/10/31 00:57:03;;;;;;;4.00;1.30;;;14.70;60.60;;;;;;349623;28;1545;-58
2023/10/31 00:57:14;;;;;;;3.90;1.37;;;14.70;60.60;;;;;;349792;28;1031;-58
2023/10/31 00:57:25;;;;;;;3.50;1.48;;;14.70;60.60;;;;;;349726;28;975;-57
2023/10/31 00:57:35;;;;;;;3.03;1.40;;;14.70;60.70;;;;;;349683;28;1024;-59
2023/10/31 00:57:46;;;;;;;3.50;1.38;;;14.80;60.70;;;;;;349778;28;911;-57
2023/10/31 00:57:57;;;;;;;3.50;1.23;;;14.70;60.70;;;;;;349806;28;873;-57
2023/10/31 00:58:08;;;;;;;3.45;1.30;;;14.70;60.80;;;;;;349711;28;1302;-59
2023/10/31 00:58:18;;;;;;;3.05;1.20;;;14.70;60.80;;;;;;349640;28;1090;-57
2023/10/31 00:58:29;;;;;;;4.10;1.30;;;14.70;60.80;;;;;;349817;28;955;-57